createdAt,value
2017-03-15T00:00:03.246Z,1016.38
2017-03-15T00:15:02.684Z,1016.24
2017-03-15T00:30:02.559Z,1016.35
2017-03-15T00:45:02.901Z,1016.24
2017-03-15T01:00:02.599Z,1015.92
2017-03-15T01:15:03.541Z,1016.12
2017-03-15T01:30:03.653Z,1015.8
2017-03-15T01:45:03.382Z,1015.8
2017-03-15T02:00:03.076Z,1015.81
2017-03-15T02:15:03.591Z,1015.75
2017-03-15T02:30:03.538Z,1015.76
2017-03-15T02:45:03.296Z,1015.93
2017-03-15T03:00:02.912Z,1015.84
2017-03-15T03:15:02.746Z,1015.88
2017-03-15T03:30:03.172Z,1016.02
2017-03-15T03:45:02.843Z,1015.98
2017-03-15T04:00:03.004Z,1016.27
2017-03-15T04:15:03.282Z,1016.51
2017-03-15T04:30:03.365Z,1016.36
2017-03-15T04:45:03.015Z,1016.56
2017-03-15T05:00:02.897Z,1016.68
2017-03-15T05:15:03.691Z,1016.65
2017-03-15T05:30:02.674Z,1016.8
2017-03-15T05:45:08.244Z,1016.68
2017-03-15T06:00:03.059Z,1016.87
2017-03-15T06:15:02.959Z,1016.9
2017-03-15T06:30:03.435Z,1017.16
2017-03-15T06:45:03.375Z,1017.28
2017-03-15T07:00:03.072Z,1017.15
2017-03-15T07:15:03.736Z,1017.28
2017-03-15T07:30:02.633Z,1017.45
2017-03-15T07:45:03.378Z,1017.47
2017-03-15T08:00:03.371Z,1017.72
2017-03-15T08:15:03.398Z,1018.02
2017-03-15T08:30:03.577Z,1018.07
2017-03-15T08:45:04.790Z,1018.09
2017-03-15T09:00:03.468Z,1018.07
2017-03-15T09:15:03.093Z,1018.18
2017-03-15T09:30:03.333Z,1018.21
2017-03-15T09:45:02.976Z,1018.35
2017-03-15T10:00:02.895Z,1018.53
2017-03-15T10:15:02.565Z,1018.49
2017-03-15T10:30:03.483Z,1018.21
2017-03-15T10:45:03.149Z,1018.16
2017-03-15T11:00:03.081Z,1018.08
2017-03-15T11:15:08.099Z,1017.93
2017-03-15T11:30:02.990Z,1017.77
2017-03-15T11:45:04.169Z,1017.67
2017-03-15T12:00:02.835Z,1017.47
2017-03-15T12:15:03.761Z,1017.51
2017-03-15T12:30:03.053Z,1017.67
2017-03-15T12:45:02.783Z,1017.49
2017-03-15T13:00:03.439Z,1017.44
2017-03-15T13:15:03.441Z,1017.34
2017-03-15T13:30:02.607Z,1017.33
2017-03-15T13:45:03.284Z,1017.45
2017-03-15T14:00:08.140Z,1017.55
2017-03-15T14:15:02.833Z,1017.49
2017-03-15T14:30:03.037Z,1017.67
2017-03-15T14:45:02.705Z,1017.59
2017-03-15T15:00:03.469Z,1017.45
2017-03-15T15:15:02.839Z,1017.33
2017-03-15T15:30:03.048Z,1017.32
2017-03-15T15:45:02.767Z,1017.05
2017-03-15T16:00:03.462Z,1017.08
2017-03-15T16:15:03.176Z,1017.2
2017-03-15T16:30:03.248Z,1017.04
2017-03-15T16:45:03.016Z,1017.09
2017-03-15T17:00:03.076Z,1016.98
2017-03-15T17:15:03.544Z,1017.15
2017-03-15T17:30:03.718Z,1017.23
2017-03-15T17:45:03.422Z,1017.37
2017-03-15T18:00:03.211Z,1017.33
2017-03-15T18:15:02.911Z,1017.37
2017-03-15T18:30:02.810Z,1017.24
2017-03-15T18:45:03.645Z,1017.28
2017-03-15T19:00:03.380Z,1017.15
2017-03-15T19:15:03.785Z,1017.07
2017-03-15T19:30:02.997Z,1017.11
2017-03-15T19:45:02.656Z,1017.21
2017-03-15T20:00:03.509Z,1017.29
2017-03-15T20:15:02.642Z,1017.22
2017-03-15T20:30:03.540Z,1017.24
2017-03-15T20:45:02.997Z,1017.3
2017-03-15T21:00:02.795Z,1017.18
2017-03-15T21:15:03.187Z,1017.14
2017-03-15T21:30:03.090Z,1017.08
2017-03-15T21:45:02.744Z,1017.03
2017-03-15T22:00:03.658Z,1016.91
2017-03-15T22:15:02.643Z,1016.85
2017-03-15T22:30:03.578Z,1016.64
2017-03-15T22:45:03.624Z,1016.34
2017-03-15T23:00:03.377Z,1016.13
2017-03-15T23:15:03.591Z,1016.08
2017-03-15T23:30:03.523Z,1015.97
2017-03-15T23:45:03.302Z,1015.71
